createdAt,value
2019-06-10T00:01:35.538Z,15.20
2019-06-10T00:04:06.601Z,15.20
2019-06-10T00:06:32.907Z,15.10
2019-06-10T00:09:03.119Z,15.10
2019-06-10T00:11:31.516Z,15.10
2019-06-10T00:14:02.431Z,15.10
2019-06-10T00:16:30.829Z,15.00
2019-06-10T00:18:58.419Z,15.00
2019-06-10T00:21:27.380Z,15.00
2019-06-10T00:23:55.214Z,14.90
2019-06-10T00:26:23.074Z,14.90
2019-06-10T00:28:51.348Z,14.80
2019-06-10T00:31:20.746Z,14.80
2019-06-10T00:33:48.817Z,14.70
2019-06-10T00:36:16.677Z,14.60
2019-06-10T00:38:44.543Z,14.60
2019-06-10T00:41:14.114Z,14.70
2019-06-10T00:43:41.922Z,14.70
2019-06-10T00:46:13.049Z,14.60
2019-06-10T00:48:41.032Z,14.60
2019-06-10T00:51:08.885Z,14.60
2019-06-10T00:53:36.774Z,14.70
2019-06-10T00:56:05.676Z,14.70
2019-06-10T00:58:34.152Z,14.70
2019-06-10T01:01:02.707Z,14.70
2019-06-10T01:03:31.629Z,14.60
2019-06-10T01:06:02.582Z,14.50
2019-06-10T01:08:31.430Z,14.50
2019-06-10T01:10:58.563Z,14.50
2019-06-10T01:13:26.389Z,14.40
2019-06-10T01:15:54.362Z,14.40
2019-06-10T01:18:34.968Z,14.30
2019-06-10T01:20:51.840Z,14.30
2019-06-10T01:23:21.398Z,14.30
2019-06-10T01:25:51.041Z,14.30
2019-06-10T01:28:18.719Z,14.20
2019-06-10T01:30:46.578Z,14.20
2019-06-10T01:33:16.015Z,14.20
2019-06-10T01:35:43.983Z,14.20
2019-06-10T01:38:13.473Z,14.20
2019-06-10T01:40:42.095Z,14.20
2019-06-10T01:43:13.352Z,14.30
2019-06-10T01:45:41.757Z,14.40
2019-06-10T01:48:12.143Z,14.40
2019-06-10T01:50:40.576Z,14.40
2019-06-10T01:53:10.100Z,14.20
2019-06-10T01:55:38.114Z,14.20
2019-06-10T01:58:05.986Z,14.20
2019-06-10T02:00:51.805Z,14.10
2019-06-10T02:03:23.708Z,14.10
2019-06-10T02:05:51.646Z,14.10
2019-06-10T02:08:21.912Z,14.10
2019-06-10T02:10:50.816Z,14.10
2019-06-10T02:13:22.185Z,14.00
2019-06-10T02:15:51.388Z,14.10
2019-06-10T02:18:22.401Z,14.00
2019-06-10T02:20:51.115Z,14.10
2019-06-10T02:23:18.707Z,14.10
2019-06-10T02:25:46.611Z,14.10
2019-06-10T02:28:15.847Z,14.10
2019-06-10T02:30:50.578Z,14.20
2019-06-10T02:33:17.427Z,14.20
2019-06-10T02:35:48.552Z,14.20
2019-06-10T02:38:19.321Z,14.20
2019-06-10T02:40:43.233Z,14.20
2019-06-10T02:43:17.466Z,14.20
2019-06-10T02:45:44.507Z,14.20
2019-06-10T02:48:13.732Z,14.20
2019-06-10T02:50:54.131Z,14.20
2019-06-10T02:53:28.499Z,14.30
2019-06-10T02:55:53.786Z,14.30
2019-06-10T02:58:24.220Z,14.30
2019-06-10T03:00:54.297Z,14.30
2019-06-10T03:03:27.941Z,14.40
2019-06-10T03:05:53.406Z,14.50
2019-06-10T03:08:22.164Z,14.50
2019-06-10T03:10:49.197Z,14.50
2019-06-10T03:13:17.630Z,14.60
2019-06-10T03:16:03.677Z,14.70
2019-06-10T03:18:32.813Z,14.70
2019-06-10T03:21:02.649Z,14.80
2019-06-10T03:23:31.983Z,14.90
2019-06-10T03:26:04.206Z,14.90
2019-06-10T03:28:32.131Z,15.00
2019-06-10T03:31:05.083Z,15.00
2019-06-10T03:33:39.330Z,15.00
2019-06-10T03:35:59.206Z,15.10
2019-06-10T03:38:28.215Z,15.20
2019-06-10T03:40:56.195Z,15.20
2019-06-10T03:43:26.309Z,15.40
2019-06-10T03:45:53.590Z,15.40
2019-06-10T03:48:23.730Z,15.40
2019-06-10T03:50:52.436Z,15.50
2019-06-10T03:53:21.914Z,15.50
2019-06-10T03:55:50.023Z,15.60
2019-06-10T03:58:17.818Z,15.60
2019-06-10T04:00:45.678Z,15.80
2019-06-10T04:03:13.547Z,15.90
2019-06-10T04:05:42.375Z,15.80
2019-06-10T04:08:12.470Z,15.80
2019-06-10T04:10:39.890Z,15.80
2019-06-10T04:13:07.763Z,16.10
2019-06-10T04:15:36.986Z,16.30
2019-06-10T04:18:04.858Z,16.50
2019-06-10T04:20:33.200Z,16.50
2019-06-10T04:23:02.799Z,16.60
2019-06-10T04:25:32.393Z,16.70
2019-06-10T04:28:00.422Z,16.70
2019-06-10T04:30:29.321Z,16.80
2019-06-10T04:32:57.249Z,16.70
2019-06-10T04:35:26.516Z,16.80
2019-06-10T04:37:54.623Z,16.80
2019-06-10T04:40:23.561Z,16.90
2019-06-10T04:42:52.526Z,17.00
2019-06-10T04:45:21.229Z,17.10
2019-06-10T04:47:52.328Z,17.30
2019-06-10T04:50:28.367Z,17.80
2019-06-10T04:52:48.990Z,18.80
2019-06-10T04:55:16.858Z,20.10
2019-06-10T04:57:44.718Z,20.70
2019-06-10T05:00:14.778Z,21.10
2019-06-10T05:02:43.029Z,21.40
2019-06-10T05:05:13.078Z,21.50
2019-06-10T05:07:42.703Z,21.70
2019-06-10T05:10:12.263Z,21.80
2019-06-10T05:12:39.694Z,22.30
2019-06-10T05:15:07.955Z,22.70
2019-06-10T05:17:35.824Z,23.10
2019-06-10T05:20:05.281Z,23.10
2019-06-10T05:22:33.153Z,23.70
2019-06-10T05:25:02.464Z,23.80
2019-06-10T05:27:32.903Z,23.90
2019-06-10T05:30:02.083Z,24.00
2019-06-10T05:32:31.167Z,23.90
2019-06-10T05:34:59.090Z,23.70
2019-06-10T05:37:28.205Z,23.60
2019-06-10T05:39:57.207Z,23.20
2019-06-10T05:42:28.200Z,23.20
2019-06-10T05:44:57.130Z,23.60
2019-06-10T05:47:27.694Z,23.60
2019-06-10T05:49:54.512Z,23.30
2019-06-10T05:52:23.367Z,23.00
2019-06-10T05:54:52.209Z,22.50
2019-06-10T05:57:22.618Z,22.40
2019-06-10T05:59:49.664Z,23.00
2019-06-10T06:02:17.540Z,23.50
2019-06-10T06:04:45.409Z,23.60
2019-06-10T06:07:13.275Z,23.70
2019-06-10T06:09:42.700Z,23.10
2019-06-10T06:12:13.711Z,22.70
2019-06-10T06:14:42.440Z,21.90
2019-06-10T06:17:09.654Z,21.50
2019-06-10T06:19:38.885Z,21.60
2019-06-10T06:22:06.895Z,21.30
2019-06-10T06:24:35.686Z,21.00
2019-06-10T06:27:03.831Z,21.10
2019-06-10T06:29:33.875Z,21.20
2019-06-10T06:32:02.704Z,21.20
2019-06-10T06:34:32.726Z,21.30
2019-06-10T06:37:02.154Z,21.10
2019-06-10T06:39:32.262Z,21.10
2019-06-10T06:41:59.319Z,21.30
2019-06-10T06:44:27.547Z,21.30
2019-06-10T06:46:55.402Z,21.00
2019-06-10T06:49:23.276Z,20.90
2019-06-10T06:51:56.216Z,21.00
2019-06-10T06:54:22.871Z,21.00
2019-06-10T06:56:50.156Z,20.90
2019-06-10T06:59:18.027Z,21.10
2019-06-10T07:01:45.978Z,21.10
2019-06-10T07:04:14.065Z,21.00
2019-06-10T07:06:43.221Z,21.10
2019-06-10T07:09:13.563Z,21.40
2019-06-10T07:11:44.898Z,21.60
2019-06-10T07:14:13.352Z,21.80
2019-06-10T07:16:45.412Z,22.10
2019-06-10T07:19:10.385Z,22.60
2019-06-10T07:21:58.405Z,23.10
2019-06-10T07:24:07.775Z,23.40
2019-06-10T07:26:39.051Z,23.80
2019-06-10T07:29:05.142Z,23.80
2019-06-10T07:31:35.252Z,23.90
2019-06-10T07:34:02.735Z,24.20
2019-06-10T07:36:33.914Z,24.70
2019-06-10T07:39:00.116Z,24.40
2019-06-10T07:41:27.977Z,24.10
2019-06-10T07:43:55.841Z,24.10
2019-06-10T07:46:25.156Z,23.90
2019-06-10T07:48:56.491Z,23.60
2019-06-10T07:51:22.792Z,23.60
2019-06-10T07:53:52.556Z,23.50
2019-06-10T07:56:22.987Z,23.40
2019-06-10T07:58:49.793Z,23.30
2019-06-10T08:01:17.730Z,23.20
2019-06-10T08:03:46.685Z,23.10
2019-06-10T08:06:14.654Z,23.00
2019-06-10T08:08:45.313Z,22.90
2019-06-10T08:11:13.652Z,23.00
2019-06-10T08:13:44.699Z,23.10
2019-06-10T08:16:13.086Z,23.10
2019-06-10T08:18:56.986Z,23.20
2019-06-10T08:21:12.235Z,23.30
2019-06-10T08:23:44.732Z,23.30
2019-06-10T08:26:12.678Z,23.20
2019-06-10T08:28:42.495Z,23.20
2019-06-10T08:31:12.395Z,23.20
2019-06-10T08:33:42.558Z,23.20
2019-06-10T08:36:09.383Z,23.20
2019-06-10T08:38:38.306Z,23.20
2019-06-10T08:41:06.211Z,23.10
2019-06-10T08:43:34.014Z,23.10
2019-06-10T08:46:02.548Z,23.20
2019-06-10T08:48:32.735Z,23.20
2019-06-10T08:51:03.244Z,23.20
2019-06-10T08:53:29.974Z,23.20
2019-06-10T08:55:57.879Z,23.20
2019-06-10T08:58:25.760Z,23.20
2019-06-10T09:00:53.955Z,23.20
2019-06-10T09:03:23.373Z,23.10
2019-06-10T09:05:53.925Z,23.30
2019-06-10T09:08:23.404Z,23.20
2019-06-10T09:10:52.539Z,23.10
2019-06-10T09:13:22.252Z,23.30
2019-06-10T09:16:06.873Z,23.20
2019-06-10T09:18:20.104Z,23.20
2019-06-10T09:20:52.691Z,23.30
2019-06-10T09:23:22.578Z,23.20
2019-06-10T09:25:51.802Z,23.10
2019-06-10T09:28:17.206Z,23.10
2019-06-10T09:30:50.964Z,23.10
2019-06-10T09:33:14.582Z,23.20
2019-06-10T09:35:47.312Z,23.30
2019-06-10T09:38:14.087Z,23.40
2019-06-10T09:40:48.634Z,23.40
2019-06-10T09:43:12.952Z,23.40
2019-06-10T09:45:45.356Z,23.50
2019-06-10T09:48:13.265Z,23.40
2019-06-10T09:50:47.069Z,23.60
2019-06-10T09:53:12.709Z,23.50
2019-06-10T09:55:44.517Z,23.50
2019-06-10T09:58:12.337Z,23.50
2019-06-10T10:00:45.235Z,23.60
2019-06-10T10:03:12.299Z,23.60
2019-06-10T10:05:45.498Z,23.60
2019-06-10T10:08:12.538Z,23.50
2019-06-10T10:10:41.655Z,23.50
2019-06-10T10:13:10.282Z,23.60
2019-06-10T10:15:38.450Z,23.70
2019-06-10T10:18:06.925Z,23.60
2019-06-10T10:20:34.785Z,23.50
2019-06-10T10:23:02.815Z,23.60
2019-06-10T10:25:33.274Z,23.60
2019-06-10T10:28:03.059Z,23.60
2019-06-10T10:30:29.823Z,23.70
2019-06-10T10:32:57.702Z,23.80
2019-06-10T10:35:25.754Z,23.70
2019-06-10T10:37:55.465Z,23.70
2019-06-10T10:40:23.415Z,23.70
2019-06-10T10:43:01.559Z,23.60
2019-06-10T10:45:22.665Z,23.50
2019-06-10T10:47:52.625Z,23.70
2019-06-10T10:50:22.515Z,23.80
2019-06-10T10:52:49.919Z,23.80
2019-06-10T10:55:17.947Z,23.80
2019-06-10T10:57:45.805Z,23.80
2019-06-10T11:00:14.874Z,23.90
2019-06-10T11:02:44.196Z,23.90
2019-06-10T11:05:13.837Z,24.00
2019-06-10T11:07:42.291Z,24.10
2019-06-10T11:10:12.670Z,24.10
2019-06-10T11:12:42.956Z,24.00
2019-06-10T11:15:13.072Z,24.00
2019-06-10T11:17:42.532Z,24.20
2019-06-10T11:20:09.981Z,24.10
2019-06-10T11:22:37.850Z,24.20
2019-06-10T11:25:09.058Z,24.10
2019-06-10T11:27:36.935Z,24.20
2019-06-10T11:30:06.586Z,24.30
2019-06-10T11:32:34.455Z,24.30
2019-06-10T11:35:02.942Z,24.20
2019-06-10T11:37:37.217Z,24.20
2019-06-10T11:40:06.228Z,24.10
2019-06-10T11:42:34.164Z,24.00
2019-06-10T11:45:02.905Z,24.10
2019-06-10T11:47:32.899Z,24.10
2019-06-10T11:50:02.830Z,24.00
2019-06-10T11:52:32.799Z,23.90
2019-06-10T11:55:11.963Z,24.10
2019-06-10T11:57:28.956Z,24.20
2019-06-10T11:59:58.343Z,24.10
2019-06-10T12:02:27.330Z,24.00
2019-06-10T12:04:57.106Z,24.10
2019-06-10T12:07:25.115Z,24.30
2019-06-10T12:09:55.327Z,24.30
2019-06-10T12:12:22.494Z,24.40
2019-06-10T12:14:54.793Z,24.50
2019-06-10T12:17:35.267Z,24.60
2019-06-10T12:19:49.824Z,24.60
2019-06-10T12:22:17.799Z,24.70
2019-06-10T12:24:45.799Z,24.60
2019-06-10T12:27:13.683Z,24.50
2019-06-10T12:29:42.291Z,24.50
2019-06-10T12:32:10.285Z,24.50
2019-06-10T12:34:38.124Z,24.60
2019-06-10T12:37:11.299Z,24.60
2019-06-10T12:39:35.504Z,24.60
2019-06-10T12:42:06.276Z,24.60
2019-06-10T12:44:33.727Z,24.60
2019-06-10T12:47:06.375Z,24.70
2019-06-10T12:49:32.074Z,24.70
2019-06-10T12:52:01.281Z,24.60
2019-06-10T12:54:29.450Z,24.80
2019-06-10T12:56:58.062Z,24.80
2019-06-10T12:59:25.915Z,24.80
2019-06-10T13:01:55.745Z,24.80
2019-06-10T13:04:23.371Z,24.80
2019-06-10T13:06:52.566Z,24.90
2019-06-10T13:09:23.389Z,24.60
2019-06-10T13:11:52.585Z,24.50
2019-06-10T13:14:21.939Z,24.30
2019-06-10T13:16:49.142Z,24.30
2019-06-10T13:19:17.027Z,24.30
2019-06-10T13:21:44.907Z,24.30
2019-06-10T13:24:13.851Z,24.40
2019-06-10T13:26:43.215Z,24.50
2019-06-10T13:29:16.632Z,24.40
2019-06-10T13:31:43.275Z,24.40
2019-06-10T13:34:12.114Z,24.40
2019-06-10T13:36:42.103Z,24.50
2019-06-10T13:39:10.448Z,24.40
2019-06-10T13:41:38.631Z,24.40
2019-06-10T13:44:06.490Z,24.50
2019-06-10T13:46:34.342Z,24.50
2019-06-10T13:49:06.837Z,24.50
2019-06-10T13:51:32.318Z,24.60
2019-06-10T13:54:03.332Z,24.60
2019-06-10T13:56:43.053Z,24.60
2019-06-10T13:59:01.608Z,24.70
2019-06-10T14:01:29.795Z,24.80
2019-06-10T14:03:57.658Z,24.80
2019-06-10T14:06:39.777Z,24.80
2019-06-10T14:08:55.094Z,24.70
2019-06-10T14:11:27.950Z,24.60
2019-06-10T14:13:52.752Z,24.60
2019-06-10T14:16:23.232Z,24.50
2019-06-10T14:18:51.262Z,24.50
2019-06-10T14:21:23.166Z,24.40
2019-06-10T14:23:49.367Z,24.40
2019-06-10T14:26:21.310Z,24.30
2019-06-10T14:28:46.762Z,24.30
2019-06-10T14:31:33.646Z,24.30
2019-06-10T14:33:44.140Z,24.20
2019-06-10T14:36:15.105Z,24.30
2019-06-10T14:38:42.078Z,24.20
2019-06-10T14:41:10.120Z,24.10
2019-06-10T14:43:37.949Z,24.10
2019-06-10T14:46:07.375Z,24.20
2019-06-10T14:48:35.966Z,24.10
2019-06-10T14:51:05.373Z,24.10
2019-06-10T14:53:33.907Z,24.10
2019-06-10T14:56:03.700Z,24.10
2019-06-10T14:58:31.327Z,24.20
2019-06-10T15:00:59.188Z,24.20
2019-06-10T15:03:27.051Z,24.30
2019-06-10T15:05:54.935Z,24.20
2019-06-10T15:08:23.236Z,24.20
2019-06-10T15:10:52.841Z,24.10
2019-06-10T15:13:23.172Z,24.10
2019-06-10T15:15:52.948Z,24.10
2019-06-10T15:18:20.674Z,24.10
2019-06-10T15:20:49.483Z,24.10
2019-06-10T15:23:19.081Z,24.10
2019-06-10T15:25:52.600Z,24.10
2019-06-10T15:28:17.580Z,24.00
2019-06-10T15:30:45.959Z,24.10
2019-06-10T15:33:16.536Z,24.10
2019-06-10T15:35:43.333Z,24.10
2019-06-10T15:38:14.789Z,24.10
2019-06-10T15:40:43.142Z,24.00
2019-06-10T15:43:11.667Z,24.00
2019-06-10T15:45:39.721Z,24.10
2019-06-10T15:48:07.588Z,24.10
2019-06-10T15:50:35.454Z,24.00
2019-06-10T15:53:03.327Z,24.00
2019-06-10T15:55:55.405Z,24.00
2019-06-10T15:58:02.055Z,23.90
2019-06-10T16:00:30.279Z,23.90
2019-06-10T16:02:58.149Z,24.00
2019-06-10T16:05:26.023Z,23.90
2019-06-10T16:07:53.890Z,23.90
2019-06-10T16:10:27.095Z,23.90
2019-06-10T16:12:52.820Z,23.80
2019-06-10T16:15:24.301Z,23.90
2019-06-10T16:17:50.371Z,23.80
2019-06-10T16:20:19.386Z,23.80
2019-06-10T16:22:47.417Z,23.70
2019-06-10T16:25:15.955Z,23.70
2019-06-10T16:27:50.708Z,23.60
2019-06-10T16:30:14.609Z,23.60
2019-06-10T16:32:45.658Z,23.60
2019-06-10T16:35:13.103Z,23.50
2019-06-10T16:37:42.218Z,23.50
2019-06-10T16:40:12.295Z,23.50
2019-06-10T16:42:42.940Z,23.50
2019-06-10T16:45:09.760Z,23.50
2019-06-10T16:47:37.619Z,23.40
2019-06-10T16:50:06.186Z,23.30
2019-06-10T16:52:34.392Z,23.30
2019-06-10T16:55:02.750Z,23.30
2019-06-10T16:57:33.266Z,23.20
2019-06-10T17:00:02.774Z,23.20
2019-06-10T17:02:30.020Z,23.10
2019-06-10T17:04:58.621Z,23.10
2019-06-10T17:07:26.975Z,23.10
2019-06-10T17:09:54.946Z,23.00
2019-06-10T17:12:24.845Z,23.00
2019-06-10T17:14:52.728Z,23.00
2019-06-10T17:17:23.530Z,22.90
2019-06-10T17:19:50.290Z,22.90
2019-06-10T17:22:18.774Z,22.90
2019-06-10T17:24:46.721Z,22.90
2019-06-10T17:27:14.594Z,22.90
2019-06-10T17:29:42.741Z,22.80
2019-06-10T17:32:13.132Z,22.50
2019-06-10T17:34:42.226Z,22.30
2019-06-10T17:37:09.775Z,22.00
2019-06-10T17:39:37.626Z,21.90
2019-06-10T17:42:05.493Z,21.80
2019-06-10T17:44:33.360Z,21.80
2019-06-10T17:47:02.245Z,21.70
2019-06-10T17:49:33.227Z,21.70
2019-06-10T17:52:02.406Z,21.70
2019-06-10T17:54:30.331Z,21.70
2019-06-10T17:56:58.369Z,21.70
2019-06-10T17:59:26.832Z,21.70
2019-06-10T18:01:54.806Z,21.70
2019-06-10T18:04:23.988Z,21.70
2019-06-10T18:06:52.928Z,21.70
2019-06-10T18:09:23.167Z,21.70
2019-06-10T18:11:50.429Z,21.70
2019-06-10T18:14:18.293Z,21.70
2019-06-10T18:16:46.155Z,21.70
2019-06-10T18:19:14.031Z,21.70
2019-06-10T18:21:41.901Z,21.70
2019-06-10T18:24:09.777Z,21.70
2019-06-10T18:26:38.037Z,21.80
2019-06-10T18:29:09.176Z,21.80
2019-06-10T18:31:37.038Z,21.80
2019-06-10T18:34:05.042Z,21.80
2019-06-10T18:36:34.635Z,21.80
2019-06-10T18:39:02.982Z,21.80
2019-06-10T18:41:30.959Z,21.80
2019-06-10T18:43:58.833Z,21.80
2019-06-10T18:46:27.940Z,21.80
2019-06-10T18:48:55.895Z,21.80
2019-06-10T18:51:23.764Z,21.70
2019-06-10T18:53:51.641Z,21.80
2019-06-10T18:56:19.529Z,21.70
2019-06-10T18:58:47.378Z,21.70
2019-06-10T19:01:15.242Z,21.70
2019-06-10T19:03:43.294Z,21.70
2019-06-10T19:06:12.560Z,21.60
2019-06-10T19:08:43.385Z,21.60
2019-06-10T19:11:10.166Z,21.70
2019-06-10T19:13:39.139Z,21.70
2019-06-10T19:16:07.549Z,21.70
2019-06-10T19:18:36.069Z,21.60
2019-06-10T19:21:08.349Z,21.60
2019-06-10T19:23:35.121Z,21.60
2019-06-10T19:26:03.196Z,21.60
2019-06-10T19:28:33.408Z,21.60
2019-06-10T19:31:02.416Z,21.60
2019-06-10T19:33:32.462Z,21.60
2019-06-10T19:36:02.102Z,21.70
2019-06-10T19:38:29.121Z,21.60
2019-06-10T19:40:56.982Z,21.70
2019-06-10T19:43:24.797Z,21.60
2019-06-10T19:45:53.060Z,21.60
2019-06-10T19:48:21.031Z,21.60
2019-06-10T19:50:51.309Z,21.60
2019-06-10T19:53:18.399Z,21.70
2019-06-10T19:55:46.289Z,21.70
2019-06-10T19:58:14.126Z,21.70
2019-06-10T20:00:48.849Z,21.80
2019-06-10T20:03:11.514Z,21.80
2019-06-10T20:05:40.024Z,21.80
2019-06-10T20:08:07.956Z,21.80
2019-06-10T20:10:36.013Z,21.80
2019-06-10T20:13:04.082Z,21.80
2019-06-10T20:15:32.807Z,21.80
2019-06-10T20:18:02.907Z,21.70
2019-06-10T20:20:33.143Z,21.70
2019-06-10T20:23:02.880Z,21.70
2019-06-10T20:25:29.282Z,21.70
2019-06-10T20:27:57.141Z,21.70
2019-06-10T20:30:28.678Z,21.70
2019-06-10T20:32:56.344Z,21.70
2019-06-10T20:35:24.045Z,21.70
2019-06-10T20:37:53.911Z,21.60
2019-06-10T20:40:22.183Z,21.60
2019-06-10T20:42:50.042Z,21.60
2019-06-10T20:45:18.013Z,21.50
2019-06-10T20:47:48.010Z,21.50
2019-06-10T20:50:15.398Z,21.50
2019-06-10T20:52:45.681Z,21.40
2019-06-10T20:55:12.895Z,21.50
2019-06-10T20:57:52.126Z,21.50
2019-06-10T21:00:21.976Z,21.50
2019-06-10T21:02:41.624Z,21.40
2019-06-10T21:05:10.431Z,21.40
2019-06-10T21:07:39.204Z,21.40
2019-06-10T21:10:07.457Z,21.40
2019-06-10T21:12:35.319Z,21.40
2019-06-10T21:15:04.386Z,21.30
2019-06-10T21:17:33.276Z,21.30
2019-06-10T21:20:03.361Z,21.30
2019-06-10T21:22:32.544Z,21.30
2019-06-10T21:25:02.343Z,21.30
2019-06-10T21:27:29.762Z,21.30
2019-06-10T21:29:57.626Z,21.20
2019-06-10T21:32:25.494Z,21.20
2019-06-10T21:34:53.912Z,21.20
2019-06-10T21:37:22.689Z,21.20
2019-06-10T21:39:51.583Z,21.20
2019-06-10T21:42:20.106Z,21.10
2019-06-10T21:44:48.042Z,21.10
2019-06-10T21:47:16.034Z,21.10
2019-06-10T21:49:44.313Z,21.10
2019-06-10T21:52:13.395Z,21.10
2019-06-10T21:54:42.558Z,21.10
2019-06-10T21:57:10.781Z,21.10
2019-06-10T22:00:03.749Z,21.00
2019-06-10T22:02:32.411Z,21.00
2019-06-10T22:05:03.136Z,21.00
2019-06-10T22:07:29.891Z,21.00
2019-06-10T22:09:57.758Z,21.00
2019-06-10T22:12:25.633Z,21.00
2019-06-10T22:14:54.658Z,21.00
2019-06-10T22:17:22.625Z,20.90
2019-06-10T22:19:51.219Z,20.90
2019-06-10T22:22:20.005Z,20.90
2019-06-10T22:24:48.812Z,20.90
2019-06-10T22:27:16.835Z,20.80
2019-06-10T22:29:45.067Z,20.80
2019-06-10T22:32:13.082Z,20.80
2019-06-10T22:34:42.158Z,20.80
2019-06-10T22:37:12.357Z,20.80
2019-06-10T22:39:41.921Z,20.80
2019-06-10T22:42:09.147Z,20.80
2019-06-10T22:44:37.013Z,20.80
2019-06-10T22:47:04.879Z,20.80
2019-06-10T22:49:32.938Z,20.80
2019-06-10T22:52:01.005Z,20.70
2019-06-10T22:54:28.872Z,20.70
2019-06-10T22:56:58.197Z,20.70
2019-06-10T22:59:26.332Z,20.70
2019-06-10T23:01:56.289Z,20.70
2019-06-10T23:04:23.714Z,20.70
2019-06-10T23:06:53.375Z,20.70
2019-06-10T23:09:22.258Z,20.70
2019-06-10T23:11:51.151Z,20.70
2019-06-10T23:14:19.674Z,20.60
2019-06-10T23:16:48.791Z,20.60
2019-06-10T23:19:16.710Z,20.60
2019-06-10T23:21:44.579Z,20.60
2019-06-10T23:24:13.418Z,20.50
2019-06-10T23:26:42.494Z,20.50
2019-06-10T23:29:12.264Z,20.50
2019-06-10T23:31:49.646Z,20.50
2019-06-10T23:34:09.425Z,20.50
2019-06-10T23:36:37.297Z,20.50
2019-06-10T23:39:05.767Z,20.50
2019-06-10T23:41:33.627Z,20.50
2019-06-10T23:44:04.100Z,20.50
2019-06-10T23:46:31.987Z,20.50
2019-06-10T23:48:59.966Z,20.40
2019-06-10T23:51:27.831Z,20.40
2019-06-10T23:53:58.358Z,20.40
2019-06-10T23:56:25.131Z,20.40
2019-06-10T23:58:55.356Z,20.40
